sensor_id;sensor_type;location;lat;lon;timestamp;pressure;altitude;pressure_sealevel;temperature;humidity
42647;BME280;31319;53.678;-6.254;2023-02-12T00:00:41;103491.25;;;15.61;81.64
42647;BME280;31319;53.678;-6.254;2023-02-12T00:03:07;103489.06;;;15.63;80.59
42647;BME280;31319;53.678;-6.254;2023-02-12T00:05:33;103493.75;;;15.62;80.37
42647;BME280;31319;53.678;-6.254;2023-02-12T00:07:58;103491.56;;;15.64;79.64
42647;BME280;31319;53.678;-6.254;2023-02-12T00:10:24;103491.84;;;15.63;79.64
42647;BME280;31319;53.678;-6.254;2023-02-12T00:12:53;103489.06;;;15.68;78.56
42647;BME280;31319;53.678;-6.254;2023-02-12T00:15:19;103484.81;;;15.96;74.91
42647;BME280;31319;53.678;-6.254;2023-02-12T00:17:44;103494.53;;;15.83;75.48
42647;BME280;31319;53.678;-6.254;2023-02-12T00:20:10;103490.44;;;15.70;77.10
42647;BME280;31319;53.678;-6.254;2023-02-12T00:22:36;103489.91;;;15.68;77.98
42647;BME280;31319;53.678;-6.254;2023-02-12T00:25:01;103490.44;;;15.70;78.49
42647;BME280;31319;53.678;-6.254;2023-02-12T00:27:27;103489.09;;;15.58;80.54
42647;BME280;31319;53.678;-6.254;2023-02-12T00:29:52;103491.00;;;15.62;79.76
42647;BME280;31319;53.678;-6.254;2023-02-12T00:32:18;103487.97;;;15.69;78.83
42647;BME280;31319;53.678;-6.254;2023-02-12T00:34:46;103480.78;;;15.68;78.85
42647;BME280;31319;53.678;-6.254;2023-02-12T00:37:12;103473.06;;;15.70;78.75
42647;BME280;31319;53.678;-6.254;2023-02-12T00:39:38;103481.91;;;15.67;78.95
42647;BME280;31319;53.678;-6.254;2023-02-12T00:42:04;103470.34;;;15.65;78.95
42647;BME280;31319;53.678;-6.254;2023-02-12T00:44:30;103476.94;;;15.59;79.57
42647;BME280;31319;53.678;-6.254;2023-02-12T00:46:55;103467.84;;;15.63;79.67
42647;BME280;31319;53.678;-6.254;2023-02-12T00:49:30;103473.38;;;15.53;80.59
42647;BME280;31319;53.678;-6.254;2023-02-12T00:52:03;103469.22;;;15.55;79.99
42647;BME280;31319;53.678;-6.254;2023-02-12T00:54:29;103470.34;;;15.54;80.41
42647;BME280;31319;53.678;-6.254;2023-02-12T00:56:55;103473.66;;;15.51;81.37
42647;BME280;31319;53.678;-6.254;2023-02-12T00:59:22;103466.25;;;15.42;82.18
42647;BME280;31319;53.678;-6.254;2023-02-12T01:01:49;103475.31;;;15.52;80.54
42647;BME280;31319;53.678;-6.254;2023-02-12T01:04:14;103468.44;;;15.50;80.92
42647;BME280;31319;53.678;-6.254;2023-02-12T01:06:40;103468.41;;;15.55;80.10
42647;BME280;31319;53.678;-6.254;2023-02-12T01:09:06;103470.34;;;15.54;80.02
42647;BME280;31319;53.678;-6.254;2023-02-12T01:11:31;103468.69;;;15.59;79.70
42647;BME280;31319;53.678;-6.254;2023-02-12T01:13:57;103460.94;;;15.61;79.55
42647;BME280;31319;53.678;-6.254;2023-02-12T01:16:23;103457.94;;;15.67;78.44
42647;BME280;31319;53.678;-6.254;2023-02-12T01:18:50;103456.56;;;15.54;81.21
42647;BME280;31319;53.678;-6.254;2023-02-12T01:21:19;103453.25;;;15.52;79.93
42647;BME280;31319;53.678;-6.254;2023-02-12T01:23:45;103447.56;;;15.18;85.21
42647;BME280;31319;53.678;-6.254;2023-02-12T01:26:12;103452.25;;;15.18;86.07
42647;BME280;31319;53.678;-6.254;2023-02-12T01:28:39;103457.50;;;15.09;87.93
42647;BME280;31319;53.678;-6.254;2023-02-12T01:31:13;103455.28;;;15.11;88.60
42647;BME280;31319;53.678;-6.254;2023-02-12T01:33:39;103455.25;;;15.42;84.52
42647;BME280;31319;53.678;-6.254;2023-02-12T01:36:05;103454.88;;;15.64;79.55
42647;BME280;31319;53.678;-6.254;2023-02-12T01:38:31;103455.44;;;15.61;79.46
42647;BME280;31319;53.678;-6.254;2023-02-12T01:41:15;103456.28;;;16.16;72.23
42647;BME280;31319;53.678;-6.254;2023-02-12T01:43:41;103451.91;;;16.09;70.45
42647;BME280;31319;53.678;-6.254;2023-02-12T01:46:09;103442.81;;;15.39;82.62
42647;BME280;31319;53.678;-6.254;2023-02-12T01:48:38;103437.97;;;15.86;76.51
42647;BME280;31319;53.678;-6.254;2023-02-12T01:51:06;103436.06;;;15.86;75.61
42647;BME280;31319;53.678;-6.254;2023-02-12T01:53:37;103435.88;;;15.62;79.89
42647;BME280;31319;53.678;-6.254;2023-02-12T01:56:05;103427.69;;;16.01;75.76
42647;BME280;31319;53.678;-6.254;2023-02-12T01:58:35;103430.09;;;16.18;72.43
42647;BME280;31319;53.678;-6.254;2023-02-12T02:01:04;103424.84;;;16.17;72.04
42647;BME280;31319;53.678;-6.254;2023-02-12T02:03:32;103423.16;;;15.76;77.66
42647;BME280;31319;53.678;-6.254;2023-02-12T02:06:16;103417.94;;;15.70;78.83
42647;BME280;31319;53.678;-6.254;2023-02-12T02:08:42;103412.13;;;15.76;78.66
42647;BME280;31319;53.678;-6.254;2023-02-12T02:11:08;103416.22;;;15.79;78.78
42647;BME280;31319;53.678;-6.254;2023-02-12T02:13:53;103417.94;;;15.75;79.58
42647;BME280;31319;53.678;-6.254;2023-02-12T02:16:42;103405.81;;;15.71;80.76
42647;BME280;31319;53.678;-6.254;2023-02-12T02:24:46;103414.66;;;15.68;81.41
42647;BME280;31319;53.678;-6.254;2023-02-12T02:27:31;103410.53;;;15.65;81.27
42647;BME280;31319;53.678;-6.254;2023-02-12T02:30:21;103405.03;;;15.65;81.58
42647;BME280;31319;53.678;-6.254;2023-02-12T02:32:55;103408.41;;;15.32;87.26
42647;BME280;31319;53.678;-6.254;2023-02-12T02:43:51;103409.28;;;15.22;90.09
42647;BME280;31319;53.678;-6.254;2023-02-12T02:46:25;103418.38;;;15.22;90.26
42647;BME280;31319;53.678;-6.254;2023-02-12T02:48:59;103417.22;;;15.39;87.77
42647;BME280;31319;53.678;-6.254;2023-02-12T02:51:31;103413.38;;;15.35;87.81
42647;BME280;31319;53.678;-6.254;2023-02-12T02:54:07;103413.34;;;15.40;87.22
42647;BME280;31319;53.678;-6.254;2023-02-12T02:56:36;103416.97;;;15.35;88.01
42647;BME280;31319;53.678;-6.254;2023-02-12T02:59:05;103424.94;;;15.32;89.19
42647;BME280;31319;53.678;-6.254;2023-02-12T03:01:39;103416.97;;;15.30;89.69
42647;BME280;31319;53.678;-6.254;2023-02-12T03:04:24;103414.81;;;15.12;94.26
42647;BME280;31319;53.678;-6.254;2023-02-12T03:07:10;103414.53;;;15.13;93.67
42647;BME280;31319;53.678;-6.254;2023-02-12T03:09:40;103408.47;;;15.16;92.46
42647;BME280;31319;53.678;-6.254;2023-02-12T03:12:19;103423.34;;;15.15;91.82
42647;BME280;31319;53.678;-6.254;2023-02-12T03:15:02;103413.72;;;15.03;94.40
42647;BME280;31319;53.678;-6.254;2023-02-12T03:17:34;103410.69;;;15.09;92.99
42647;BME280;31319;53.678;-6.254;2023-02-12T03:20:07;103402.69;;;15.08;92.79
42647;BME280;31319;53.678;-6.254;2023-02-12T03:22:37;103402.69;;;15.08;93.08
42647;BME280;31319;53.678;-6.254;2023-02-12T03:25:11;103397.72;;;15.15;91.79
42647;BME280;31319;53.678;-6.254;2023-02-12T03:27:46;103392.50;;;15.08;93.51
42647;BME280;31319;53.678;-6.254;2023-02-12T03:30:15;103387.00;;;15.08;93.59
42647;BME280;31319;53.678;-6.254;2023-02-12T03:32:53;103385.06;;;15.09;94.25
42647;BME280;31319;53.678;-6.254;2023-02-12T03:35:36;103384.81;;;15.05;94.82
42647;BME280;31319;53.678;-6.254;2023-02-12T03:41:08;103379.56;;;15.09;93.37
42647;BME280;31319;53.678;-6.254;2023-02-12T03:43:51;103388.38;;;15.11;92.98
42647;BME280;31319;53.678;-6.254;2023-02-12T03:51:44;103374.84;;;15.24;90.60
42647;BME280;31319;53.678;-6.254;2023-02-12T03:54:12;103376.31;;;14.96;93.81
42647;BME280;31319;53.678;-6.254;2023-02-12T03:59:23;103382.63;;;14.97;94.94
42647;BME280;31319;53.678;-6.254;2023-02-12T04:01:51;103384.25;;;15.13;92.40
42647;BME280;31319;53.678;-6.254;2023-02-12T04:04:18;103377.66;;;14.99;94.04
42647;BME280;31319;53.678;-6.254;2023-02-12T04:06:45;103377.41;;;14.80;99.68
42647;BME280;31319;53.678;-6.254;2023-02-12T04:09:12;103381.56;;;14.83;99.29
42647;BME280;31319;53.678;-6.254;2023-02-12T04:15:28;103384.59;;;14.51;100.00
42647;BME280;31319;53.678;-6.254;2023-02-12T04:17:43;103381.56;;;14.62;100.00
42647;BME280;31319;53.678;-6.254;2023-02-12T04:26:04;103379.09;;;14.81;98.36
42647;BME280;31319;53.678;-6.254;2023-02-12T04:31:05;103384.31;;;14.78;98.76
42647;BME280;31319;53.678;-6.254;2023-02-12T04:33:45;103390.09;;;14.81;98.16
42647;BME280;31319;53.678;-6.254;2023-02-12T04:36:14;103379.59;;;14.88;96.19
42647;BME280;31319;53.678;-6.254;2023-02-12T04:38:47;103375.19;;;14.87;95.23
42647;BME280;31319;53.678;-6.254;2023-02-12T04:41:16;103375.78;;;14.84;95.80
42647;BME280;31319;53.678;-6.254;2023-02-12T04:43:41;103387.59;;;14.90;94.71
42647;BME280;31319;53.678;-6.254;2023-02-12T04:46:07;103387.03;;;14.98;92.84
42647;BME280;31319;53.678;-6.254;2023-02-12T04:48:34;103382.59;;;15.02;91.53
42647;BME280;31319;53.678;-6.254;2023-02-12T04:51:01;103385.66;;;15.06;91.01
42647;BME280;31319;53.678;-6.254;2023-02-12T04:53:27;103395.00;;;15.05;91.00
42647;BME280;31319;53.678;-6.254;2023-02-12T04:55:53;103393.34;;;15.04;91.51
42647;BME280;31319;53.678;-6.254;2023-02-12T04:58:19;103394.44;;;15.03;91.46
42647;BME280;31319;53.678;-6.254;2023-02-12T05:00:45;103390.59;;;15.04;91.11
42647;BME280;31319;53.678;-6.254;2023-02-12T05:03:10;103396.94;;;14.99;91.46
42647;BME280;31319;53.678;-6.254;2023-02-12T05:05:36;103389.72;;;15.18;87.91
42647;BME280;31319;53.678;-6.254;2023-02-12T05:08:01;103398.16;;;15.47;82.96
42647;BME280;31319;53.678;-6.254;2023-02-12T05:10:27;103398.13;;;15.58;80.66
42647;BME280;31319;53.678;-6.254;2023-02-12T05:12:53;103392.06;;;15.66;78.55
42647;BME280;31319;53.678;-6.254;2023-02-12T05:15:20;103394.59;;;16.01;74.72
42647;BME280;31319;53.678;-6.254;2023-02-12T05:17:46;103400.06;;;15.57;77.56
42647;BME280;31319;53.678;-6.254;2023-02-12T05:20:12;103385.53;;;15.36;82.07
42647;BME280;31319;53.678;-6.254;2023-02-12T05:22:38;103387.19;;;15.32;83.42
42647;BME280;31319;53.678;-6.254;2023-02-12T05:25:04;103392.69;;;15.37;82.67
42647;BME280;31319;53.678;-6.254;2023-02-12T05:27:30;103385.31;;;15.22;84.91
42647;BME280;31319;53.678;-6.254;2023-02-12T05:29:56;103385.56;;;15.31;83.99
42647;BME280;31319;53.678;-6.254;2023-02-12T05:32:22;103396.94;;;14.99;89.64
42647;BME280;31319;53.678;-6.254;2023-02-12T05:34:48;103401.13;;;14.81;93.92
42647;BME280;31319;53.678;-6.254;2023-02-12T05:37:13;103393.66;;;14.92;93.41
42647;BME280;31319;53.678;-6.254;2023-02-12T05:39:39;103396.13;;;14.93;93.22
42647;BME280;31319;53.678;-6.254;2023-02-12T05:42:05;103395.03;;;14.84;95.11
42647;BME280;31319;53.678;-6.254;2023-02-12T05:44:30;103389.22;;;14.96;93.46
42647;BME280;31319;53.678;-6.254;2023-02-12T05:46:56;103389.75;;;15.03;91.92
42647;BME280;31319;53.678;-6.254;2023-02-12T05:49:21;103391.16;;;15.01;92.71
42647;BME280;31319;53.678;-6.254;2023-02-12T05:51:47;103391.97;;;15.06;92.12
42647;BME280;31319;53.678;-6.254;2023-02-12T05:54:13;103390.03;;;15.12;90.86
42647;BME280;31319;53.678;-6.254;2023-02-12T05:56:44;103390.88;;;15.02;93.40
42647;BME280;31319;53.678;-6.254;2023-02-12T05:59:19;103388.16;;;14.97;94.38
42647;BME280;31319;53.678;-6.254;2023-02-12T06:01:46;103386.47;;;15.01;94.02
42647;BME280;31319;53.678;-6.254;2023-02-12T06:04:15;103380.97;;;15.01;94.49
42647;BME280;31319;53.678;-6.254;2023-02-12T06:06:41;103388.34;;;15.16;92.69
42647;BME280;31319;53.678;-6.254;2023-02-12T06:09:08;103381.22;;;15.15;91.81
42647;BME280;31319;53.678;-6.254;2023-02-12T06:11:34;103391.66;;;15.18;92.39
42647;BME280;31319;53.678;-6.254;2023-02-12T06:14:04;103386.44;;;15.11;92.73
42647;BME280;31319;53.678;-6.254;2023-02-12T06:16:31;103393.09;;;14.95;96.96
42647;BME280;31319;53.678;-6.254;2023-02-12T06:18:57;103382.59;;;15.02;96.69
42647;BME280;31319;53.678;-6.254;2023-02-12T06:21:25;103377.09;;;15.07;94.93
42647;BME280;31319;53.678;-6.254;2023-02-12T06:23:51;103382.06;;;15.00;96.82
42647;BME280;31319;53.678;-6.254;2023-02-12T06:26:18;103383.44;;;15.03;96.84
42647;BME280;31319;53.678;-6.254;2023-02-12T06:28:45;103375.44;;;15.06;95.82
42647;BME280;31319;53.678;-6.254;2023-02-12T06:31:19;103385.94;;;14.99;98.74
42647;BME280;31319;53.678;-6.254;2023-02-12T06:33:46;103381.78;;;15.12;95.28
42647;BME280;31319;53.678;-6.254;2023-02-12T06:36:12;103377.97;;;14.92;99.53
42647;BME280;31319;53.678;-6.254;2023-02-12T06:38:37;103378.16;;;15.11;96.14
42647;BME280;31319;53.678;-6.254;2023-02-12T06:41:03;103372.97;;;15.05;97.76
42647;BME280;31319;53.678;-6.254;2023-02-12T06:43:29;103370.78;;;15.07;97.72
42647;BME280;31319;53.678;-6.254;2023-02-12T06:45:55;103373.22;;;15.13;96.61
42647;BME280;31319;53.678;-6.254;2023-02-12T06:48:20;103371.84;;;15.11;97.16
42647;BME280;31319;53.678;-6.254;2023-02-12T06:50:46;103373.53;;;15.12;97.54
42647;BME280;31319;53.678;-6.254;2023-02-12T06:53:11;103365.81;;;15.04;99.61
42647;BME280;31319;53.678;-6.254;2023-02-12T06:55:37;103364.69;;;15.10;97.59
42647;BME280;31319;53.678;-6.254;2023-02-12T06:58:02;103364.94;;;15.18;96.16
42647;BME280;31319;53.678;-6.254;2023-02-12T07:00:28;103365.44;;;15.31;93.31
42647;BME280;31319;53.678;-6.254;2023-02-12T07:02:54;103366.66;;;15.04;99.66
42647;BME280;31319;53.678;-6.254;2023-02-12T07:05:20;103368.31;;;14.95;100.00
42647;BME280;31319;53.678;-6.254;2023-02-12T07:07:46;103365.53;;;15.05;99.83
42647;BME280;31319;53.678;-6.254;2023-02-12T07:10:12;103374.03;;;15.19;96.81
42647;BME280;31319;53.678;-6.254;2023-02-12T07:12:37;103369.63;;;15.18;97.11
42647;BME280;31319;53.678;-6.254;2023-02-12T07:15:03;103366.59;;;15.19;97.17
42647;BME280;31319;53.678;-6.254;2023-02-12T07:17:29;103364.97;;;15.13;98.82
42647;BME280;31319;53.678;-6.254;2023-02-12T07:19:55;103374.59;;;15.16;98.48
42647;BME280;31319;53.678;-6.254;2023-02-12T07:22:21;103368.00;;;15.12;99.98
42647;BME280;31319;53.678;-6.254;2023-02-12T07:24:47;103362.47;;;15.17;98.23
42647;BME280;31319;53.678;-6.254;2023-02-12T07:27:13;103358.06;;;15.16;98.42
42647;BME280;31319;53.678;-6.254;2023-02-12T07:29:39;103373.47;;;15.17;98.27
42647;BME280;31319;53.678;-6.254;2023-02-12T07:32:05;103375.13;;;15.18;97.81
42647;BME280;31319;53.678;-6.254;2023-02-12T07:34:31;103371.84;;;15.11;99.92
42647;BME280;31319;53.678;-6.254;2023-02-12T07:36:56;103367.19;;;15.01;100.00
42647;BME280;31319;53.678;-6.254;2023-02-12T07:39:22;103373.53;;;15.02;100.00
42647;BME280;31319;53.678;-6.254;2023-02-12T07:41:48;103382.34;;;14.98;100.00
42647;BME280;31319;53.678;-6.254;2023-02-12T07:44:14;103380.09;;;15.11;99.64
42647;BME280;31319;53.678;-6.254;2023-02-12T07:46:43;103385.06;;;15.09;100.00
42647;BME280;31319;53.678;-6.254;2023-02-12T07:49:15;103381.50;;;15.13;99.92
42647;BME280;31319;53.678;-6.254;2023-02-12T07:51:41;103389.47;;;15.15;99.60
42647;BME280;31319;53.678;-6.254;2023-02-12T07:54:06;103386.72;;;15.20;98.12
42647;BME280;31319;53.678;-6.254;2023-02-12T07:56:35;103393.88;;;15.16;99.28
42647;BME280;31319;53.678;-6.254;2023-02-12T07:59:09;103397.19;;;15.13;100.00
42647;BME280;31319;53.678;-6.254;2023-02-12T08:01:37;103399.38;;;15.11;100.00
42647;BME280;31319;53.678;-6.254;2023-02-12T08:04:11;103395.50;;;15.17;98.99
42647;BME280;31319;53.678;-6.254;2023-02-12T08:06:42;103399.94;;;15.13;100.00
42647;BME280;31319;53.678;-6.254;2023-02-12T08:09:10;103400.47;;;15.15;100.00
42647;BME280;31319;53.678;-6.254;2023-02-12T08:11:37;103406.03;;;15.05;100.00
42647;BME280;31319;53.678;-6.254;2023-02-12T08:14:04;103403.03;;;14.91;100.00
42647;BME280;31319;53.678;-6.254;2023-02-12T08:16:30;103407.38;;;15.02;100.00
42647;BME280;31319;53.678;-6.254;2023-02-12T08:18:56;103405.16;;;15.14;100.00
42647;BME280;31319;53.678;-6.254;2023-02-12T08:21:24;103401.59;;;15.09;100.00
42647;BME280;31319;53.678;-6.254;2023-02-12T08:23:52;103405.75;;;15.06;100.00
42647;BME280;31319;53.678;-6.254;2023-02-12T08:26:27;103409.56;;;15.10;100.00
42647;BME280;31319;53.678;-6.254;2023-02-12T08:28:56;103405.41;;;15.23;98.57
42647;BME280;31319;53.678;-6.254;2023-02-12T08:31:25;103403.47;;;15.29;97.36
42647;BME280;31319;53.678;-6.254;2023-02-12T08:33:52;103400.47;;;15.20;98.59
42647;BME280;31319;53.678;-6.254;2023-02-12T08:36:20;103407.06;;;15.29;97.17
42647;BME280;31319;53.678;-6.254;2023-02-12T08:38:47;103405.75;;;15.06;100.00
42647;BME280;31319;53.678;-6.254;2023-02-12T08:41:21;103407.09;;;15.14;100.00
42647;BME280;31319;53.678;-6.254;2023-02-12T08:43:50;103397.16;;;15.28;100.00
42647;BME280;31319;53.678;-6.254;2023-02-12T08:46:19;103405.13;;;15.24;100.00
42647;BME280;31319;53.678;-6.254;2023-02-12T08:48:46;103408.94;;;15.39;98.52
42647;BME280;31319;53.678;-6.254;2023-02-12T08:51:17;103402.06;;;15.36;99.55
42647;BME280;31319;53.678;-6.254;2023-02-12T08:53:46;103402.03;;;15.41;99.85
42647;BME280;31319;53.678;-6.254;2023-02-12T08:56:14;103404.06;;;15.20;100.00
42647;BME280;31319;53.678;-6.254;2023-02-12T08:58:41;103407.53;;;15.41;100.00
42647;BME280;31319;53.678;-6.254;2023-02-12T09:01:20;103400.38;;;15.45;100.00
42647;BME280;31319;53.678;-6.254;2023-02-12T09:03:47;103406.41;;;15.63;98.35
42647;BME280;31319;53.678;-6.254;2023-02-12T09:06:14;103410.81;;;15.59;98.90
42647;BME280;31319;53.678;-6.254;2023-02-12T09:08:43;103403.94;;;15.61;98.37
42647;BME280;31319;53.678;-6.254;2023-02-12T09:11:12;103404.72;;;15.57;98.43
42647;BME280;31319;53.678;-6.254;2023-02-12T09:13:38;103408.88;;;15.54;98.88
42647;BME280;31319;53.678;-6.254;2023-02-12T09:16:06;103405.84;;;15.66;96.68
42647;BME280;31319;53.678;-6.254;2023-02-12T09:18:32;103397.31;;;15.52;100.00
42647;BME280;31319;53.678;-6.254;2023-02-12T09:21:07;103399.69;;;15.79;94.67
42647;BME280;31319;53.678;-6.254;2023-02-12T09:23:33;103393.34;;;15.84;94.06
42647;BME280;31319;53.678;-6.254;2023-02-12T09:25:59;103397.50;;;15.81;93.86
42647;BME280;31319;53.678;-6.254;2023-02-12T09:28:27;103390.38;;;15.70;97.07
42647;BME280;31319;53.678;-6.254;2023-02-12T09:30:53;103395.88;;;15.70;97.40
42647;BME280;31319;53.678;-6.254;2023-02-12T09:33:18;103395.88;;;15.70;98.88
42647;BME280;31319;53.678;-6.254;2023-02-12T09:35:44;103395.81;;;15.85;95.28
42647;BME280;31319;53.678;-6.254;2023-02-12T09:38:09;103393.03;;;15.85;95.14
42647;BME280;31319;53.678;-6.254;2023-02-12T09:47:53;103383.06;;;15.94;96.21
42647;BME280;31319;53.678;-6.254;2023-02-12T09:52:42;103382.91;;;16.20;90.95
42647;BME280;31319;53.678;-6.254;2023-02-12T09:55:14;103384.03;;;16.14;92.46
42647;BME280;31319;53.678;-6.254;2023-02-12T09:57:41;103379.00;;;16.26;91.01
42647;BME280;31319;53.678;-6.254;2023-02-12T10:00:24;103385.28;;;16.31;90.21
42647;BME280;31319;53.678;-6.254;2023-02-12T10:03:05;103379.53;;;16.28;90.36
42647;BME280;31319;53.678;-6.254;2023-02-12T10:05:47;103375.94;;;16.27;88.98
42647;BME280;31319;53.678;-6.254;2023-02-12T10:08:38;103380.47;;;16.47;86.44
42647;BME280;31319;53.678;-6.254;2023-02-12T10:11:21;103386.56;;;16.44;87.72
42647;BME280;31319;53.678;-6.254;2023-02-12T10:22:32;103382.28;;;16.28;91.67
42647;BME280;31319;53.678;-6.254;2023-02-12T10:25:23;103380.25;;;16.38;90.52
42647;BME280;31319;53.678;-6.254;2023-02-12T10:27:55;103370.59;;;16.75;86.01
42647;BME280;31319;53.678;-6.254;2023-02-12T10:30:39;103376.47;;;16.63;85.85
42647;BME280;31319;53.678;-6.254;2023-02-12T10:33:56;103371.59;;;16.55;86.29
42647;BME280;31319;53.678;-6.254;2023-02-12T10:39:34;103367.38;;;16.29;90.52
42647;BME280;31319;53.678;-6.254;2023-02-12T10:42:07;103362.97;;;16.28;90.97
42647;BME280;31319;53.678;-6.254;2023-02-12T10:44:36;103373.25;;;16.51;88.29
42647;BME280;31319;53.678;-6.254;2023-02-12T10:47:01;103375.44;;;16.54;86.54
42647;BME280;31319;53.678;-6.254;2023-02-12T10:49:30;103370.69;;;16.60;83.81
42647;BME280;31319;53.678;-6.254;2023-02-12T10:52:33;103369.34;;;16.57;79.62
42647;BME280;31319;53.678;-6.254;2023-02-12T10:55:01;103374.94;;;16.81;78.84
42647;BME280;31319;53.678;-6.254;2023-02-12T10:57:29;103363.72;;;16.73;77.86
42647;BME280;31319;53.678;-6.254;2023-02-12T10:59:58;103366.59;;;16.57;80.04
42647;BME280;31319;53.678;-6.254;2023-02-12T11:02:38;103362.22;;;16.51;81.00
42647;BME280;31319;53.678;-6.254;2023-02-12T11:05:24;103367.03;;;16.41;77.45
42647;BME280;31319;53.678;-6.254;2023-02-12T11:07:51;103374.91;;;16.52;77.86
42647;BME280;31319;53.678;-6.254;2023-02-12T11:10:39;103359.84;;;16.74;73.12
42647;BME280;31319;53.678;-6.254;2023-02-12T11:13:22;103364.63;;;16.63;74.09
42647;BME280;31319;53.678;-6.254;2023-02-12T11:15:49;103360.13;;;16.72;72.54
42647;BME280;31319;53.678;-6.254;2023-02-12T11:18:24;103363.31;;;16.55;69.18
42647;BME280;31319;53.678;-6.254;2023-02-12T11:20:59;103353.72;;;16.77;65.84
42647;BME280;31319;53.678;-6.254;2023-02-12T11:29:18;103350.22;;;16.71;60.40
42647;BME280;31319;53.678;-6.254;2023-02-12T11:32:00;103342.03;;;16.85;58.81
42647;BME280;31319;53.678;-6.254;2023-02-12T11:34:26;103334.09;;;17.26;57.92
42647;BME280;31319;53.678;-6.254;2023-02-12T11:36:54;103337.53;;;16.94;58.78
42647;BME280;31319;53.678;-6.254;2023-02-12T11:42:15;103322.91;;;17.17;56.04
42647;BME280;31319;53.678;-6.254;2023-02-12T11:44:58;103327.25;;;17.24;55.15
42647;BME280;31319;53.678;-6.254;2023-02-12T11:47:33;103321.66;;;17.05;54.91
42647;BME280;31319;53.678;-6.254;2023-02-12T11:50:29;103321.91;;;17.08;54.67
42647;BME280;31319;53.678;-6.254;2023-02-12T11:52:59;103311.22;;;17.02;54.53
42647;BME280;31319;53.678;-6.254;2023-02-12T11:55:31;103316.94;;;17.05;55.05
42647;BME280;31319;53.678;-6.254;2023-02-12T11:58:15;103316.91;;;17.10;53.29
42647;BME280;31319;53.678;-6.254;2023-02-12T12:03:57;103316.56;;;17.17;53.17
42647;BME280;31319;53.678;-6.254;2023-02-12T12:06:34;103307.28;;;17.27;53.06
42647;BME280;31319;53.678;-6.254;2023-02-12T12:09:14;103296.19;;;17.32;51.33
42647;BME280;31319;53.678;-6.254;2023-02-12T12:12:28;103294.34;;;17.46;51.24
42647;BME280;31319;53.678;-6.254;2023-02-12T12:14:53;103294.81;;;17.29;50.40
42647;BME280;31319;53.678;-6.254;2023-02-12T12:17:52;103299.63;;;17.24;51.39
42647;BME280;31319;53.678;-6.254;2023-02-12T12:23:17;103282.38;;;17.32;50.92
42647;BME280;31319;53.678;-6.254;2023-02-12T12:26:01;103284.16;;;16.99;51.65
42647;BME280;31319;53.678;-6.254;2023-02-12T12:28:34;103279.50;;;17.37;51.41
42647;BME280;31319;53.678;-6.254;2023-02-12T12:31:16;103281.81;;;17.30;52.11
42647;BME280;31319;53.678;-6.254;2023-02-12T12:33:51;103278.63;;;17.41;52.00
42647;BME280;31319;53.678;-6.254;2023-02-12T12:36:32;103276.09;;;17.64;52.29
42647;BME280;31319;53.678;-6.254;2023-02-12T12:58:28;103265.03;;;17.45;52.39
42647;BME280;31319;53.678;-6.254;2023-02-12T13:06:03;103250.41;;;17.63;51.86
42647;BME280;31319;53.678;-6.254;2023-02-12T13:11:21;103240.78;;;17.23;52.09
42647;BME280;31319;53.678;-6.254;2023-02-12T13:13:52;103245.63;;;17.31;52.16
42647;BME280;31319;53.678;-6.254;2023-02-12T13:16:35;103240.00;;;17.36;51.84
42647;BME280;31319;53.678;-6.254;2023-02-12T13:22:18;103233.50;;;17.27;52.99
42647;BME280;31319;53.678;-6.254;2023-02-12T13:24:51;103234.34;;;17.46;52.98
42647;BME280;31319;53.678;-6.254;2023-02-12T13:27:34;103237.91;;;17.28;53.72
42647;BME280;31319;53.678;-6.254;2023-02-12T13:30:21;103225.88;;;17.38;54.06
42647;BME280;31319;53.678;-6.254;2023-02-12T13:32:49;103233.53;;;17.46;54.57
42647;BME280;31319;53.678;-6.254;2023-02-12T13:35:21;103227.78;;;17.24;55.60
42647;BME280;31319;53.678;-6.254;2023-02-12T13:37:54;103224.41;;;17.27;55.78
42647;BME280;31319;53.678;-6.254;2023-02-12T13:40:25;103224.25;;;17.37;56.22
42647;BME280;31319;53.678;-6.254;2023-02-12T13:48:23;103213.13;;;17.61;55.32
42647;BME280;31319;53.678;-6.254;2023-02-12T13:53:22;103210.06;;;17.62;54.91
42647;BME280;31319;53.678;-6.254;2023-02-12T13:56:55;103205.28;;;17.49;54.47
42647;BME280;31319;53.678;-6.254;2023-02-12T13:58:54;103208.31;;;17.66;54.30
42647;BME280;31319;53.678;-6.254;2023-02-12T14:01:44;103203.16;;;17.79;53.86
42647;BME280;31319;53.678;-6.254;2023-02-12T14:06:57;103204.91;;;17.56;54.63
42647;BME280;31319;53.678;-6.254;2023-02-12T14:10:02;103201.72;;;17.81;54.66
42647;BME280;31319;53.678;-6.254;2023-02-12T14:15:03;103202.13;;;17.74;55.05
42647;BME280;31319;53.678;-6.254;2023-02-12T14:23:20;103202.56;;;17.82;56.33
42647;BME280;31319;53.678;-6.254;2023-02-12T14:26:04;103198.50;;;17.93;55.71
42647;BME280;31319;53.678;-6.254;2023-02-12T14:28:53;103209.22;;;17.81;57.15
42647;BME280;31319;53.678;-6.254;2023-02-12T14:31:35;103195.78;;;18.07;56.40
42647;BME280;31319;53.678;-6.254;2023-02-12T14:41:43;103192.94;;;18.39;57.31
42647;BME280;31319;53.678;-6.254;2023-02-12T14:46:50;103186.16;;;18.18;59.08
42647;BME280;31319;53.678;-6.254;2023-02-12T14:49:26;103183.97;;;18.01;59.44
42647;BME280;31319;53.678;-6.254;2023-02-12T14:51:56;103178.28;;;17.60;63.42
42647;BME280;31319;53.678;-6.254;2023-02-12T14:54:28;103174.94;;;17.95;60.86
42647;BME280;31319;53.678;-6.254;2023-02-12T14:56:58;103177.22;;;17.74;62.25
42647;BME280;31319;53.678;-6.254;2023-02-12T14:59:27;103177.03;;;17.52;65.54
42647;BME280;31319;53.678;-6.254;2023-02-12T15:01:58;103171.09;;;17.59;65.10
42647;BME280;31319;53.678;-6.254;2023-02-12T15:04:28;103175.69;;;17.68;64.80
42647;BME280;31319;53.678;-6.254;2023-02-12T15:07:07;103176.13;;;17.38;68.39
42647;BME280;31319;53.678;-6.254;2023-02-12T15:09:36;103177.88;;;17.34;70.76